sensor_id;sensor_type;location;lat;lon;timestamp;pressure;altitude;pressure_sealevel;temperature;humidity
49645;BME280;36494;50.730;-1.932;2022-11-20T00:01:52;100566.67;;;8.35;100.00
49645;BME280;36494;50.730;-1.932;2022-11-20T00:04:18;100567.46;;;8.36;100.00
49645;BME280;36494;50.730;-1.932;2022-11-20T00:06:43;100567.12;;;8.37;100.00
49645;BME280;36494;50.730;-1.932;2022-11-20T00:09:09;100564.13;;;8.37;100.00
49645;BME280;36494;50.730;-1.932;2022-11-20T00:11:34;100563.04;;;8.42;100.00
49645;BME280;36494;50.730;-1.932;2022-11-20T00:14:01;100563.08;;;8.46;100.00
49645;BME280;36494;50.730;-1.932;2022-11-20T00:16:27;100558.41;;;8.49;100.00
49645;BME280;36494;50.730;-1.932;2022-11-20T00:18:50;100558.30;;;8.51;100.00
49645;BME280;36494;50.730;-1.932;2022-11-20T00:21:17;100560.39;;;8.52;100.00
49645;BME280;36494;50.730;-1.932;2022-11-20T00:23:42;100560.61;;;8.59;100.00
49645;BME280;36494;50.730;-1.932;2022-11-20T00:26:08;100560.76;;;8.64;100.00
49645;BME280;36494;50.730;-1.932;2022-11-20T00:28:31;100562.19;;;8.68;100.00
49645;BME280;36494;50.730;-1.932;2022-11-20T00:31:01;100567.69;;;8.79;100.00
49645;BME280;36494;50.730;-1.932;2022-11-20T00:33:22;100572.47;;;8.86;100.00
49645;BME280;36494;50.730;-1.932;2022-11-20T00:35:47;100564.79;;;8.86;100.00
49645;BME280;36494;50.730;-1.932;2022-11-20T00:38:12;100563.62;;;8.81;100.00
49645;BME280;36494;50.730;-1.932;2022-11-20T00:40:38;100559.33;;;8.72;100.00
49645;BME280;36494;50.730;-1.932;2022-11-20T00:43:03;100553.29;;;8.79;100.00
49645;BME280;36494;50.730;-1.932;2022-11-20T00:45:28;100548.67;;;8.74;100.00
49645;BME280;36494;50.730;-1.932;2022-11-20T00:47:54;100544.15;;;8.79;100.00
49645;BME280;36494;50.730;-1.932;2022-11-20T00:50:19;100544.78;;;8.71;100.00
49645;BME280;36494;50.730;-1.932;2022-11-20T00:52:45;100543.06;;;8.68;100.00
49645;BME280;36494;50.730;-1.932;2022-11-20T00:55:10;100541.74;;;8.79;100.00
49645;BME280;36494;50.730;-1.932;2022-11-20T00:57:35;100536.05;;;8.77;100.00
49645;BME280;36494;50.730;-1.932;2022-11-20T01:00:01;100529.00;;;8.69;100.00
49645;BME280;36494;50.730;-1.932;2022-11-20T01:02:26;100527.39;;;8.62;100.00
49645;BME280;36494;50.730;-1.932;2022-11-20T01:04:52;100517.99;;;8.66;100.00
49645;BME280;36494;50.730;-1.932;2022-11-20T01:07:17;100515.38;;;8.65;100.00
49645;BME280;36494;50.730;-1.932;2022-11-20T01:09:42;100512.05;;;8.65;100.00
49645;BME280;36494;50.730;-1.932;2022-11-20T01:12:07;100507.22;;;8.60;100.00
49645;BME280;36494;50.730;-1.932;2022-11-20T01:14:33;100504.28;;;8.70;100.00
49645;BME280;36494;50.730;-1.932;2022-11-20T01:16:58;100499.29;;;8.63;100.00
49645;BME280;36494;50.730;-1.932;2022-11-20T01:19:23;100497.71;;;8.64;100.00
49645;BME280;36494;50.730;-1.932;2022-11-20T01:21:50;100496.23;;;8.64;100.00
49645;BME280;36494;50.730;-1.932;2022-11-20T01:24:16;100497.71;;;8.67;100.00
49645;BME280;36494;50.730;-1.932;2022-11-20T01:26:41;100488.40;;;8.60;100.00
49645;BME280;36494;50.730;-1.932;2022-11-20T01:29:06;100488.50;;;8.60;100.00
49645;BME280;36494;50.730;-1.932;2022-11-20T01:31:32;100483.63;;;8.66;100.00
49645;BME280;36494;50.730;-1.932;2022-11-20T01:33:57;100482.18;;;8.68;100.00
49645;BME280;36494;50.730;-1.932;2022-11-20T01:36:23;100480.21;;;8.74;100.00
49645;BME280;36494;50.730;-1.932;2022-11-20T01:38:47;100476.21;;;8.76;100.00
49645;BME280;36494;50.730;-1.932;2022-11-20T01:41:13;100475.75;;;8.76;100.00
49645;BME280;36494;50.730;-1.932;2022-11-20T01:43:37;100469.19;;;8.87;100.00
49645;BME280;36494;50.730;-1.932;2022-11-20T01:46:08;100461.93;;;8.84;100.00
49645;BME280;36494;50.730;-1.932;2022-11-20T01:48:32;100457.45;;;8.88;100.00
49645;BME280;36494;50.730;-1.932;2022-11-20T01:50:53;100455.43;;;8.88;100.00
49645;BME280;36494;50.730;-1.932;2022-11-20T01:53:21;100452.99;;;8.93;100.00
49645;BME280;36494;50.730;-1.932;2022-11-20T01:55:47;100451.57;;;8.89;100.00
49645;BME280;36494;50.730;-1.932;2022-11-20T01:58:09;100447.85;;;8.94;100.00
49645;BME280;36494;50.730;-1.932;2022-11-20T02:00:35;100446.97;;;8.97;100.00
49645;BME280;36494;50.730;-1.932;2022-11-20T02:03:03;100448.27;;;8.88;100.00
49645;BME280;36494;50.730;-1.932;2022-11-20T02:05:31;100446.28;;;8.86;100.00
49645;BME280;36494;50.730;-1.932;2022-11-20T02:07:50;100443.41;;;8.92;100.00
49645;BME280;36494;50.730;-1.932;2022-11-20T02:10:16;100435.79;;;8.90;100.00
49645;BME280;36494;50.730;-1.932;2022-11-20T02:12:41;100431.68;;;8.94;100.00
49645;BME280;36494;50.730;-1.932;2022-11-20T02:15:07;100425.58;;;8.89;100.00
49645;BME280;36494;50.730;-1.932;2022-11-20T02:17:32;100420.11;;;8.93;100.00
49645;BME280;36494;50.730;-1.932;2022-11-20T02:19:57;100413.60;;;8.93;100.00
49645;BME280;36494;50.730;-1.932;2022-11-20T02:22:28;100410.36;;;8.90;100.00
49645;BME280;36494;50.730;-1.932;2022-11-20T02:24:49;100412.35;;;8.95;100.00
49645;BME280;36494;50.730;-1.932;2022-11-20T02:27:15;100402.85;;;8.88;100.00
49645;BME280;36494;50.730;-1.932;2022-11-20T02:29:43;100399.41;;;8.88;100.00
49645;BME280;36494;50.730;-1.932;2022-11-20T02:32:04;100398.80;;;8.97;100.00
49645;BME280;36494;50.730;-1.932;2022-11-20T02:34:29;100393.78;;;8.88;100.00
49645;BME280;36494;50.730;-1.932;2022-11-20T02:36:55;100391.42;;;8.91;100.00
49645;BME280;36494;50.730;-1.932;2022-11-20T02:39:20;100383.02;;;8.89;100.00
49645;BME280;36494;50.730;-1.932;2022-11-20T02:41:45;100380.91;;;8.99;100.00
49645;BME280;36494;50.730;-1.932;2022-11-20T02:44:10;100379.33;;;9.02;100.00
49645;BME280;36494;50.730;-1.932;2022-11-20T02:46:35;100374.37;;;9.08;100.00
49645;BME280;36494;50.730;-1.932;2022-11-20T02:49:02;100367.70;;;9.07;100.00
49645;BME280;36494;50.730;-1.932;2022-11-20T02:51:26;100360.30;;;9.11;100.00
49645;BME280;36494;50.730;-1.932;2022-11-20T02:53:52;100354.73;;;9.09;100.00
49645;BME280;36494;50.730;-1.932;2022-11-20T02:56:17;100353.24;;;9.13;100.00
49645;BME280;36494;50.730;-1.932;2022-11-20T02:58:42;100352.19;;;9.17;100.00
49645;BME280;36494;50.730;-1.932;2022-11-20T03:01:07;100352.37;;;9.11;100.00
49645;BME280;36494;50.730;-1.932;2022-11-20T03:03:33;100352.22;;;9.14;100.00
49645;BME280;36494;50.730;-1.932;2022-11-20T03:05:58;100347.53;;;9.22;100.00
49645;BME280;36494;50.730;-1.932;2022-11-20T03:08:23;100343.31;;;9.23;100.00
49645;BME280;36494;50.730;-1.932;2022-11-20T03:10:49;100338.40;;;9.23;100.00
49645;BME280;36494;50.730;-1.932;2022-11-20T03:13:14;100331.67;;;9.20;100.00
49645;BME280;36494;50.730;-1.932;2022-11-20T03:15:39;100322.63;;;9.22;100.00
49645;BME280;36494;50.730;-1.932;2022-11-20T03:18:05;100318.61;;;9.22;100.00
49645;BME280;36494;50.730;-1.932;2022-11-20T03:20:32;100316.50;;;9.19;100.00
49645;BME280;36494;50.730;-1.932;2022-11-20T03:22:55;100315.70;;;9.19;100.00
49645;BME280;36494;50.730;-1.932;2022-11-20T03:25:21;100308.51;;;9.19;100.00
49645;BME280;36494;50.730;-1.932;2022-11-20T03:27:46;100304.55;;;9.25;100.00
49645;BME280;36494;50.730;-1.932;2022-11-20T03:30:12;100297.30;;;9.25;100.00
49645;BME280;36494;50.730;-1.932;2022-11-20T03:32:37;100294.37;;;9.26;100.00
49645;BME280;36494;50.730;-1.932;2022-11-20T03:35:03;100292.76;;;9.26;100.00
49645;BME280;36494;50.730;-1.932;2022-11-20T03:37:28;100283.58;;;9.29;100.00
49645;BME280;36494;50.730;-1.932;2022-11-20T03:39:53;100283.78;;;9.24;100.00
49645;BME280;36494;50.730;-1.932;2022-11-20T03:42:18;100273.87;;;9.23;100.00
49645;BME280;36494;50.730;-1.932;2022-11-20T03:44:44;100272.15;;;9.30;100.00
49645;BME280;36494;50.730;-1.932;2022-11-20T03:47:09;100266.35;;;9.23;100.00
49645;BME280;36494;50.730;-1.932;2022-11-20T03:49:34;100263.23;;;9.33;100.00
49645;BME280;36494;50.730;-1.932;2022-11-20T03:52:00;100255.39;;;9.33;100.00
49645;BME280;36494;50.730;-1.932;2022-11-20T03:54:25;100249.97;;;9.37;100.00
49645;BME280;36494;50.730;-1.932;2022-11-20T03:56:50;100247.58;;;9.42;100.00
49645;BME280;36494;50.730;-1.932;2022-11-20T03:59:16;100241.47;;;9.40;100.00
49645;BME280;36494;50.730;-1.932;2022-11-20T04:01:41;100233.52;;;9.42;100.00
49645;BME280;36494;50.730;-1.932;2022-11-20T04:04:07;100231.42;;;9.46;100.00
49645;BME280;36494;50.730;-1.932;2022-11-20T04:06:35;100223.71;;;9.47;100.00
49645;BME280;36494;50.730;-1.932;2022-11-20T04:08:58;100216.30;;;9.49;100.00
49645;BME280;36494;50.730;-1.932;2022-11-20T04:11:25;100211.81;;;9.50;100.00
49645;BME280;36494;50.730;-1.932;2022-11-20T04:13:51;100208.88;;;9.57;100.00
49645;BME280;36494;50.730;-1.932;2022-11-20T04:16:15;100202.22;;;9.57;100.00
49645;BME280;36494;50.730;-1.932;2022-11-20T04:18:39;100195.76;;;9.61;100.00
49645;BME280;36494;50.730;-1.932;2022-11-20T04:21:05;100195.70;;;9.63;100.00
49645;BME280;36494;50.730;-1.932;2022-11-20T04:23:30;100189.79;;;9.64;100.00
49645;BME280;36494;50.730;-1.932;2022-11-20T04:26:00;100195.27;;;9.73;100.00
49645;BME280;36494;50.730;-1.932;2022-11-20T04:28:21;100186.65;;;9.77;100.00
49645;BME280;36494;50.730;-1.932;2022-11-20T04:30:46;100192.41;;;9.80;100.00
49645;BME280;36494;50.730;-1.932;2022-11-20T04:33:11;100190.53;;;9.90;100.00
49645;BME280;36494;50.730;-1.932;2022-11-20T04:35:37;100186.86;;;9.93;100.00
49645;BME280;36494;50.730;-1.932;2022-11-20T04:38:03;100179.95;;;9.96;100.00
49645;BME280;36494;50.730;-1.932;2022-11-20T04:40:28;100175.72;;;10.02;100.00
49645;BME280;36494;50.730;-1.932;2022-11-20T04:42:53;100169.73;;;10.04;100.00
49645;BME280;36494;50.730;-1.932;2022-11-20T04:45:19;100172.86;;;10.09;100.00
49645;BME280;36494;50.730;-1.932;2022-11-20T04:47:44;100171.28;;;10.14;100.00
49645;BME280;36494;50.730;-1.932;2022-11-20T04:50:09;100168.35;;;10.19;100.00
49645;BME280;36494;50.730;-1.932;2022-11-20T04:52:35;100167.56;;;10.17;100.00
49645;BME280;36494;50.730;-1.932;2022-11-20T04:55:00;100168.93;;;10.18;100.00
49645;BME280;36494;50.730;-1.932;2022-11-20T04:57:26;100168.43;;;10.14;100.00
49645;BME280;36494;50.730;-1.932;2022-11-20T04:59:51;100167.70;;;10.07;100.00
49645;BME280;36494;50.730;-1.932;2022-11-20T05:02:17;100174.22;;;10.08;100.00
49645;BME280;36494;50.730;-1.932;2022-11-20T05:04:42;100172.23;;;10.02;100.00
49645;BME280;36494;50.730;-1.932;2022-11-20T05:07:07;100177.15;;;9.98;100.00
49645;BME280;36494;50.730;-1.932;2022-11-20T05:09:32;100183.24;;;9.95;100.00
49645;BME280;36494;50.730;-1.932;2022-11-20T05:11:58;100186.39;;;9.89;100.00
49645;BME280;36494;50.730;-1.932;2022-11-20T05:14:23;100187.85;;;9.81;100.00
49645;BME280;36494;50.730;-1.932;2022-11-20T05:16:48;100199.91;;;9.78;100.00
49645;BME280;36494;50.730;-1.932;2022-11-20T05:19:14;100210.76;;;9.71;100.00
49645;BME280;36494;50.730;-1.932;2022-11-20T05:21:39;100214.66;;;9.72;100.00
49645;BME280;36494;50.730;-1.932;2022-11-20T05:24:05;100218.74;;;9.68;100.00
49645;BME280;36494;50.730;-1.932;2022-11-20T05:26:30;100229.46;;;9.62;100.00
49645;BME280;36494;50.730;-1.932;2022-11-20T05:28:55;100227.10;;;9.51;100.00
49645;BME280;36494;50.730;-1.932;2022-11-20T05:31:24;100227.96;;;9.52;100.00
49645;BME280;36494;50.730;-1.932;2022-11-20T05:33:46;100226.97;;;9.39;100.00
49645;BME280;36494;50.730;-1.932;2022-11-20T05:36:13;100230.03;;;9.45;100.00
49645;BME280;36494;50.730;-1.932;2022-11-20T05:38:37;100233.37;;;9.41;100.00
49645;BME280;36494;50.730;-1.932;2022-11-20T05:41:04;100240.41;;;9.37;100.00
49645;BME280;36494;50.730;-1.932;2022-11-20T05:43:27;100243.45;;;9.28;100.00
49645;BME280;36494;50.730;-1.932;2022-11-20T05:45:53;100246.65;;;9.31;100.00
49645;BME280;36494;50.730;-1.932;2022-11-20T05:48:18;100251.00;;;9.23;100.00
49645;BME280;36494;50.730;-1.932;2022-11-20T05:50:43;100255.58;;;9.16;100.00
49645;BME280;36494;50.730;-1.932;2022-11-20T05:53:09;100256.28;;;9.18;100.00
49645;BME280;36494;50.730;-1.932;2022-11-20T05:55:34;100265.98;;;9.16;100.00
49645;BME280;36494;50.730;-1.932;2022-11-20T05:57:59;100270.69;;;9.09;100.00
49645;BME280;36494;50.730;-1.932;2022-11-20T06:00:24;100275.22;;;9.08;100.00
49645;BME280;36494;50.730;-1.932;2022-11-20T06:02:50;100278.74;;;9.07;100.00
49645;BME280;36494;50.730;-1.932;2022-11-20T06:05:15;100284.12;;;9.06;100.00
49645;BME280;36494;50.730;-1.932;2022-11-20T06:07:40;100288.19;;;9.01;100.00
49645;BME280;36494;50.730;-1.932;2022-11-20T06:10:06;100291.80;;;8.99;100.00
49645;BME280;36494;50.730;-1.932;2022-11-20T06:12:32;100293.09;;;8.95;100.00
49645;BME280;36494;50.730;-1.932;2022-11-20T06:14:56;100296.20;;;8.92;100.00
49645;BME280;36494;50.730;-1.932;2022-11-20T06:17:22;100300.84;;;8.90;100.00
49645;BME280;36494;50.730;-1.932;2022-11-20T06:19:47;100300.11;;;8.82;100.00
49645;BME280;36494;50.730;-1.932;2022-11-20T06:22:13;100304.91;;;8.83;100.00
49645;BME280;36494;50.730;-1.932;2022-11-20T06:24:38;100310.48;;;8.83;100.00
49645;BME280;36494;50.730;-1.932;2022-11-20T06:27:03;100309.76;;;8.81;100.00
49645;BME280;36494;50.730;-1.932;2022-11-20T06:29:29;100309.05;;;8.77;100.00
49645;BME280;36494;50.730;-1.932;2022-11-20T06:31:54;100310.63;;;8.73;100.00
49645;BME280;36494;50.730;-1.932;2022-11-20T06:34:19;100313.12;;;8.71;100.00
49645;BME280;36494;50.730;-1.932;2022-11-20T06:36:45;100312.48;;;8.69;100.00
49645;BME280;36494;50.730;-1.932;2022-11-20T06:39:10;100302.29;;;8.63;100.00
49645;BME280;36494;50.730;-1.932;2022-11-20T06:41:36;100306.46;;;8.60;100.00
49645;BME280;36494;50.730;-1.932;2022-11-20T06:44:03;100306.70;;;8.56;100.00
49645;BME280;36494;50.730;-1.932;2022-11-20T06:46:26;100306.04;;;8.56;100.00
49645;BME280;36494;50.730;-1.932;2022-11-20T06:48:52;100309.26;;;8.53;100.00
49645;BME280;36494;50.730;-1.932;2022-11-20T06:51:18;100308.58;;;8.49;100.00
49645;BME280;36494;50.730;-1.932;2022-11-20T06:53:43;100307.61;;;8.45;100.00
49645;BME280;36494;50.730;-1.932;2022-11-20T06:56:08;100307.96;;;8.38;100.00
49645;BME280;36494;50.730;-1.932;2022-11-20T06:58:35;100309.61;;;8.38;100.00
49645;BME280;36494;50.730;-1.932;2022-11-20T07:00:59;100311.67;;;8.32;100.00
49645;BME280;36494;50.730;-1.932;2022-11-20T07:03:24;100310.55;;;8.31;100.00
49645;BME280;36494;50.730;-1.932;2022-11-20T07:05:50;100316.47;;;8.29;100.00
49645;BME280;36494;50.730;-1.932;2022-11-20T07:08:15;100321.61;;;8.23;100.00
49645;BME280;36494;50.730;-1.932;2022-11-20T07:10:40;100319.02;;;8.21;100.00
49645;BME280;36494;50.730;-1.932;2022-11-20T07:13:06;100317.88;;;8.20;100.00
49645;BME280;36494;50.730;-1.932;2022-11-20T07:15:31;100318.80;;;8.14;100.00
49645;BME280;36494;50.730;-1.932;2022-11-20T07:17:58;100318.11;;;8.10;100.00
49645;BME280;36494;50.730;-1.932;2022-11-20T07:20:22;100325.26;;;8.08;100.00
49645;BME280;36494;50.730;-1.932;2022-11-20T07:22:53;100327.93;;;8.05;100.00
49645;BME280;36494;50.730;-1.932;2022-11-20T07:25:12;100330.26;;;8.01;100.00
49645;BME280;36494;50.730;-1.932;2022-11-20T07:27:38;100335.53;;;7.99;100.00
49645;BME280;36494;50.730;-1.932;2022-11-20T07:30:04;100347.00;;;7.96;100.00
49645;BME280;36494;50.730;-1.932;2022-11-20T07:32:29;100350.42;;;7.93;100.00
49645;BME280;36494;50.730;-1.932;2022-11-20T07:34:54;100353.14;;;7.92;100.00
49645;BME280;36494;50.730;-1.932;2022-11-20T07:37:20;100351.92;;;7.91;100.00
49645;BME280;36494;50.730;-1.932;2022-11-20T07:39:45;100356.69;;;7.89;100.00
49645;BME280;36494;50.730;-1.932;2022-11-20T07:42:10;100363.52;;;7.88;100.00
49645;BME280;36494;50.730;-1.932;2022-11-20T07:44:35;100366.38;;;7.86;100.00
49645;BME280;36494;50.730;-1.932;2022-11-20T07:47:01;100368.41;;;7.84;100.00
49645;BME280;36494;50.730;-1.932;2022-11-20T07:49:26;100363.58;;;7.82;100.00
49645;BME280;36494;50.730;-1.932;2022-11-20T07:51:51;100359.13;;;7.80;100.00
49645;BME280;36494;50.730;-1.932;2022-11-20T07:54:16;100360.64;;;7.77;100.00
49645;BME280;36494;50.730;-1.932;2022-11-20T07:56:41;100363.74;;;7.74;100.00
49645;BME280;36494;50.730;-1.932;2022-11-20T07:59:07;100363.17;;;7.72;100.00
49645;BME280;36494;50.730;-1.932;2022-11-20T08:01:32;100366.76;;;7.72;100.00
49645;BME280;36494;50.730;-1.932;2022-11-20T08:03:58;100368.31;;;7.71;100.00
49645;BME280;36494;50.730;-1.932;2022-11-20T08:06:23;100373.41;;;7.70;100.00
49645;BME280;36494;50.730;-1.932;2022-11-20T08:08:48;100384.75;;;7.69;100.00
49645;BME280;36494;50.730;-1.932;2022-11-20T08:11:14;100382.71;;;7.70;100.00
49645;BME280;36494;50.730;-1.932;2022-11-20T08:13:39;100387.76;;;7.71;100.00
49645;BME280;36494;50.730;-1.932;2022-11-20T08:16:05;100389.51;;;7.73;100.00
49645;BME280;36494;50.730;-1.932;2022-11-20T08:18:29;100393.36;;;7.73;100.00
49645;BME280;36494;50.730;-1.932;2022-11-20T08:20:55;100395.37;;;7.73;100.00
49645;BME280;36494;50.730;-1.932;2022-11-20T08:23:22;100401.47;;;7.73;100.00
49645;BME280;36494;50.730;-1.932;2022-11-20T08:25:49;100411.04;;;7.72;100.00
49645;BME280;36494;50.730;-1.932;2022-11-20T08:28:11;100422.88;;;7.70;100.00
49645;BME280;36494;50.730;-1.932;2022-11-20T08:30:36;100440.69;;;7.70;100.00
49645;BME280;36494;50.730;-1.932;2022-11-20T08:33:03;100439.92;;;7.70;100.00
49645;BME280;36494;50.730;-1.932;2022-11-20T08:35:26;100436.76;;;7.71;100.00
49645;BME280;36494;50.730;-1.932;2022-11-20T08:37:51;100437.71;;;7.73;100.00
49645;BME280;36494;50.730;-1.932;2022-11-20T08:40:17;100442.08;;;7.77;100.00
49645;BME280;36494;50.730;-1.932;2022-11-20T08:42:47;100446.02;;;7.78;100.00
49645;BME280;36494;50.730;-1.932;2022-11-20T08:45:08;100448.19;;;7.82;100.00
49645;BME280;36494;50.730;-1.932;2022-11-20T08:47:32;100470.78;;;7.83;100.00
49645;BME280;36494;50.730;-1.932;2022-11-20T08:49:57;100481.28;;;7.87;100.00
49645;BME280;36494;50.730;-1.932;2022-11-20T08:52:23;100469.29;;;7.83;100.00
49645;BME280;36494;50.730;-1.932;2022-11-20T08:54:48;100474.72;;;7.80;100.00
49645;BME280;36494;50.730;-1.932;2022-11-20T08:57:13;100476.14;;;7.83;100.00
49645;BME280;36494;50.730;-1.932;2022-11-20T08:59:38;100471.53;;;7.85;100.00
49645;BME280;36494;50.730;-1.932;2022-11-20T09:02:03;100461.56;;;7.84;100.00
49645;BME280;36494;50.730;-1.932;2022-11-20T09:04:29;100470.13;;;7.91;100.00
49645;BME280;36494;50.730;-1.932;2022-11-20T09:06:53;100469.76;;;7.92;100.00
49645;BME280;36494;50.730;-1.932;2022-11-20T09:09:19;100467.95;;;7.90;100.00
49645;BME280;36494;50.730;-1.932;2022-11-20T09:11:44;100471.38;;;7.93;100.00
49645;BME280;36494;50.730;-1.932;2022-11-20T09:14:09;100479.31;;;7.91;100.00
49645;BME280;36494;50.730;-1.932;2022-11-20T09:16:35;100478.70;;;7.93;100.00
49645;BME280;36494;50.730;-1.932;2022-11-20T09:19:00;100484.88;;;7.95;100.00
49645;BME280;36494;50.730;-1.932;2022-11-20T09:21:25;100487.93;;;8.00;100.00
49645;BME280;36494;50.730;-1.932;2022-11-20T09:23:50;100484.56;;;8.04;100.00
49645;BME280;36494;50.730;-1.932;2022-11-20T09:26:16;100482.63;;;8.06;100.00
49645;BME280;36494;50.730;-1.932;2022-11-20T09:28:42;100486.49;;;8.06;100.00
49645;BME280;36494;50.730;-1.932;2022-11-20T09:31:07;100481.60;;;8.09;100.00
49645;BME280;36494;50.730;-1.932;2022-11-20T09:33:32;100480.46;;;8.11;100.00
49645;BME280;36494;50.730;-1.932;2022-11-20T09:35:57;100473.12;;;8.14;100.00
49645;BME280;36494;50.730;-1.932;2022-11-20T09:38:22;100467.59;;;8.17;100.00
49645;BME280;36494;50.730;-1.932;2022-11-20T09:40:52;100474.05;;;8.17;100.00
49645;BME280;36494;50.730;-1.932;2022-11-20T09:43:18;100480.45;;;8.20;100.00
49645;BME280;36494;50.730;-1.932;2022-11-20T09:45:48;100482.57;;;8.22;100.00
49645;BME280;36494;50.730;-1.932;2022-11-20T09:48:14;100482.72;;;8.25;100.00
49645;BME280;36494;50.730;-1.932;2022-11-20T09:50:32;100483.24;;;8.26;100.00
49645;BME280;36494;50.730;-1.932;2022-11-20T09:53:04;100481.91;;;8.27;100.00
49645;BME280;36494;50.730;-1.932;2022-11-20T09:55:19;100478.57;;;8.28;100.00
49645;BME280;36494;50.730;-1.932;2022-11-20T09:57:46;100484.16;;;8.30;100.00
49645;BME280;36494;50.730;-1.932;2022-11-20T10:00:11;100483.47;;;8.30;100.00
49645;BME280;36494;50.730;-1.932;2022-11-20T10:02:37;100479.72;;;8.32;100.00
49645;BME280;36494;50.730;-1.932;2022-11-20T10:05:06;100478.48;;;8.35;100.00
49645;BME280;36494;50.730;-1.932;2022-11-20T10:07:30;100478.64;;;8.39;100.00
49645;BME280;36494;50.730;-1.932;2022-11-20T10:09:54;100480.02;;;8.42;100.00
49645;BME280;36494;50.730;-1.932;2022-11-20T10:12:20;100477.96;;;8.41;100.00
49645;BME280;36494;50.730;-1.932;2022-11-20T10:14:52;100478.75;;;8.47;100.00
49645;BME280;36494;50.730;-1.932;2022-11-20T10:17:15;100478.66;;;8.48;100.00
49645;BME280;36494;50.730;-1.932;2022-11-20T10:19:44;100479.74;;;8.53;100.00
49645;BME280;36494;50.730;-1.932;2022-11-20T10:22:05;100475.98;;;8.57;100.00
49645;BME280;36494;50.730;-1.932;2022-11-20T10:24:34;100473.79;;;8.54;100.00
49645;BME280;36494;50.730;-1.932;2022-11-20T10:26:56;100472.31;;;8.57;100.00
49645;BME280;36494;50.730;-1.932;2022-11-20T10:29:16;100471.35;;;8.58;100.00
49645;BME280;36494;50.730;-1.932;2022-11-20T10:31:41;100475.77;;;8.62;100.00
49645;BME280;36494;50.730;-1.932;2022-11-20T10:34:12;100478.73;;;8.69;100.00
49645;BME280;36494;50.730;-1.932;2022-11-20T10:36:34;100485.95;;;8.75;100.00
49645;BME280;36494;50.730;-1.932;2022-11-20T10:38:59;100485.73;;;8.73;100.00
49645;BME280;36494;50.730;-1.932;2022-11-20T10:41:27;100482.99;;;8.80;100.00
49645;BME280;36494;50.730;-1.932;2022-11-20T10:43:48;100483.21;;;8.80;100.00
49645;BME280;36494;50.730;-1.932;2022-11-20T10:46:16;100479.70;;;8.85;100.00
49645;BME280;36494;50.730;-1.932;2022-11-20T10:48:37;100478.91;;;8.95;100.00
49645;BME280;36494;50.730;-1.932;2022-11-20T10:51:11;100473.30;;;8.97;100.00
49645;BME280;36494;50.730;-1.932;2022-11-20T10:53:42;100476.32;;;8.99;100.00
49645;BME280;36494;50.730;-1.932;2022-11-20T10:55:55;100483.41;;;9.05;100.00
49645;BME280;36494;50.730;-1.932;2022-11-20T10:58:24;100488.05;;;9.06;100.00
49645;BME280;36494;50.730;-1.932;2022-11-20T11:00:43;100492.48;;;9.08;100.00
49645;BME280;36494;50.730;-1.932;2022-11-20T11:03:20;100499.14;;;9.13;100.00
49645;BME280;36494;50.730;-1.932;2022-11-20T11:05:38;100500.87;;;9.16;100.00
49645;BME280;36494;50.730;-1.932;2022-11-20T11:07:59;100500.16;;;9.18;100.00
49645;BME280;36494;50.730;-1.932;2022-11-20T11:10:28;100501.45;;;9.19;100.00
49645;BME280;36494;50.730;-1.932;2022-11-20T11:12:49;100503.25;;;9.21;100.00
49645;BME280;36494;50.730;-1.932;2022-11-20T11:15:25;100504.97;;;9.23;100.00
49645;BME280;36494;50.730;-1.932;2022-11-20T11:17:46;100506.76;;;9.29;100.00
49645;BME280;36494;50.730;-1.932;2022-11-20T11:20:15;100502.96;;;9.38;100.00
49645;BME280;36494;50.730;-1.932;2022-11-20T11:22:33;100495.33;;;9.43;100.00
49645;BME280;36494;50.730;-1.932;2022-11-20T11:24:56;100491.70;;;9.46;100.00
49645;BME280;36494;50.730;-1.932;2022-11-20T11:27:22;100492.72;;;9.51;100.00
49645;BME280;36494;50.730;-1.932;2022-11-20T11:29:47;100492.20;;;9.57;100.00
49645;BME280;36494;50.730;-1.932;2022-11-20T11:32:18;100490.13;;;9.63;100.00
49645;BME280;36494;50.730;-1.932;2022-11-20T11:34:38;100492.67;;;9.69;100.00
49645;BME280;36494;50.730;-1.932;2022-11-20T11:37:05;100490.02;;;9.73;100.00
49645;BME280;36494;50.730;-1.932;2022-11-20T11:39:31;100493.23;;;9.78;100.00
49645;BME280;36494;50.730;-1.932;2022-11-20T11:41:55;100491.46;;;9.80;100.00
49645;BME280;36494;50.730;-1.932;2022-11-20T11:44:22;100487.11;;;9.85;100.00
49645;BME280;36494;50.730;-1.932;2022-11-20T11:46:52;100481.66;;;9.90;100.00
49645;BME280;36494;50.730;-1.932;2022-11-20T11:49:16;100468.37;;;9.92;100.00
49645;BME280;36494;50.730;-1.932;2022-11-20T11:51:39;100461.76;;;9.93;100.00
49645;BME280;36494;50.730;-1.932;2022-11-20T11:54:04;100452.21;;;9.98;100.00
49645;BME280;36494;50.730;-1.932;2022-11-20T11:56:27;100451.79;;;10.06;100.00
49645;BME280;36494;50.730;-1.932;2022-11-20T11:58:53;100458.10;;;10.09;100.00
49645;BME280;36494;50.730;-1.932;2022-11-20T12:01:26;100454.78;;;10.15;100.00
49645;BME280;36494;50.730;-1.932;2022-11-20T12:03:48;100454.32;;;10.23;100.00
49645;BME280;36494;50.730;-1.932;2022-11-20T12:06:11;100457.95;;;10.26;100.00
49645;BME280;36494;50.730;-1.932;2022-11-20T12:08:42;100461.41;;;10.31;100.00
49645;BME280;36494;50.730;-1.932;2022-11-20T12:11:04;100459.25;;;10.37;100.00
49645;BME280;36494;50.730;-1.932;2022-11-20T12:13:39;100459.36;;;10.55;100.00
49645;BME280;36494;50.730;-1.932;2022-11-20T12:15:51;100460.87;;;10.69;100.00
49645;BME280;36494;50.730;-1.932;2022-11-20T12:18:19;100456.83;;;10.81;100.00
49645;BME280;36494;50.730;-1.932;2022-11-20T12:20:50;100455.41;;;10.74;100.00
49645;BME280;36494;50.730;-1.932;2022-11-20T12:23:11;100453.91;;;10.81;100.00
49645;BME280;36494;50.730;-1.932;2022-11-20T12:25:35;100453.49;;;10.91;100.00
49645;BME280;36494;50.730;-1.932;2022-11-20T12:28:10;100437.95;;;10.94;100.00